Time;durP1;ratioP1;P1;durP2;ratioP2;P2;SDS_P1;SDS_P2;PMS_P1;PMS_P2;Temp;Humidity;BMP_temperature;BMP_pressure;BME280_temperature;BME280_humidity;BME280_pressure;Samples;Min_cycle;Max_cycle;Signal;HPM_P1;HPM_P2
2023/08/01 00:00:51;;;;;;;5.55;2.92;;;;;;;15.96;100.00;99711.69;4905304;29;20135;-75
2023/08/01 00:03:18;;;;;;;3.70;2.60;;;;;;;15.95;100.00;99704.72;4895241;29;20209;-77
2023/08/01 00:05:45;;;;;;;4.13;2.80;;;;;;;15.95;100.00;99707.41;4905318;29;20536;-78
2023/08/01 00:08:14;;;;;;;4.05;2.60;;;;;;;15.94;100.00;99705.03;4891070;29;20517;-79
2023/08/01 00:10:41;;;;;;;3.70;2.45;;;;;;;15.91;100.00;99690.28;4920087;29;20502;-78
2023/08/01 00:13:07;;;;;;;4.65;2.75;;;;;;;15.90;100.00;99685.22;4889303;29;20079;-79
2023/08/01 00:15:33;;;;;;;4.70;2.83;;;;;;;15.89;100.00;99679.03;4921394;29;20063;-76
2023/08/01 00:17:59;;;;;;;3.08;2.60;;;;;;;15.88;100.00;99688.25;4904439;29;20067;-78
2023/08/01 00:20:26;;;;;;;3.50;2.35;;;;;;;15.84;100.00;99673.81;4873192;29;20040;-77
2023/08/01 00:22:53;;;;;;;;;;;;;;;15.85;100.00;99675.44;4889189;29;20040;-77
2023/08/01 00:25:20;;;;;;;4.05;2.65;;;;;;;15.83;100.00;99664.16;4906004;29;20376;-79
2023/08/01 00:27:46;;;;;;;6.35;2.65;;;;;;;15.80;100.00;99651.31;4908245;29;20083;-78
2023/08/01 00:30:12;;;;;;;;;;;;;;;15.82;100.00;99654.47;4893913;29;20044;-78
2023/08/01 00:32:38;;;;;;;4.68;2.78;;;;;;;15.82;100.00;99646.38;4896764;29;19915;-80
2023/08/01 00:35:03;;;;;;;;;;;;;;;15.79;100.00;99638.94;4888553;29;20064;-78
2023/08/01 00:37:30;;;;;;;3.67;2.22;;;;;;;15.79;100.00;99636.25;4907752;29;19957;-77
2023/08/01 00:39:56;;;;;;;3.95;2.80;;;;;;;15.77;100.00;99633.84;4892428;29;20464;-79
2023/08/01 00:42:21;;;;;;;;;;;;;;;15.76;100.00;99626.09;4888119;29;20036;-77
2023/08/01 00:44:48;;;;;;;4.18;2.50;;;;;;;15.71;100.00;99618.97;4881637;29;19919;-73
2023/08/01 00:47:15;;;;;;;3.55;2.35;;;;;;;15.70;100.00;99612.00;4901506;29;20043;-79
2023/08/01 00:49:41;;;;;;;2.65;2.00;;;;;;;15.72;100.00;99609.00;4895230;29;20501;-79
2023/08/01 00:52:09;;;;;;;3.60;2.30;;;;;;;15.71;100.00;99618.97;4910882;29;20040;-78
2023/08/01 00:54:36;;;;;;;2.90;2.10;;;;;;;15.70;100.00;99611.22;4926331;29;20133;-79
2023/08/01 00:57:05;;;;;;;3.35;2.10;;;;;;;15.69;99.96;99615.03;4879673;29;20055;-78
2023/08/01 00:59:31;;;;;;;3.42;2.38;;;;;;;15.68;100.00;99608.06;4900931;29;20103;-78
2023/08/01 01:02:00;;;;;;;3.95;2.58;;;;;;;15.67;100.00;99612.69;4895203;29;20841;-76
2023/08/01 01:04:27;;;;;;;2.40;1.90;;;;;;;15.64;100.00;99596.34;4893188;29;20636;-79
2023/08/01 01:07:02;;;;;;;3.17;2.58;;;;;;;15.62;99.87;99593.19;4890819;29;20810;-77
2023/08/01 01:09:31;;;;;;;3.38;2.20;;;;;;;15.63;100.00;99592.88;4891089;29;20036;-80
2023/08/01 01:12:00;;;;;;;2.65;2.35;;;;;;;15.62;99.75;99596.69;4891139;29;20052;-77
2023/08/01 01:14:27;;;;;;;3.38;2.08;;;;;;;15.60;99.71;99587.31;4894348;29;20028;-79
2023/08/01 01:16:53;;;;;;;5.72;2.72;;;;;;;15.61;100.00;99586.19;4893226;29;20036;-79
2023/08/01 01:19:19;;;;;;;3.00;2.33;;;;;;;15.59;100.00;99585.75;4907005;29;20505;-78
2023/08/01 01:21:47;;;;;;;2.75;2.28;;;;;;;15.61;100.00;99578.88;4892931;29;20040;-76
2023/08/01 01:24:14;;;;;;;4.47;1.95;;;;;;;15.61;100.00;99572.72;4912437;29;20135;-78
2023/08/01 01:26:41;;;;;;;3.50;2.35;;;;;;;15.61;100.00;99578.09;4887254;29;20041;-79
2023/08/01 01:29:08;;;;;;;3.67;2.10;;;;;;;15.59;100.00;99577.66;4873738;29;20043;-78
2023/08/01 01:31:35;;;;;;;3.25;2.33;;;;;;;15.59;100.00;99562.25;4911584;29;20646;-76
2023/08/01 01:34:01;;;;;;;4.22;3.20;;;;;;;15.60;100.00;99560.34;4877906;29;20044;-75
2023/08/01 01:36:29;;;;;;;3.67;2.33;;;;;;;15.55;100.00;99562.09;4920087;29;20043;-78
2023/08/01 01:38:54;;;;;;;;;;;;;;;15.57;100.00;99551.75;4903888;29;20036;-75
2023/08/01 01:41:20;;;;;;;2.53;2.30;;;;;;;15.54;100.00;99548.94;4892724;29;20421;-76
2023/08/01 01:43:45;;;;;;;;;;;;;;;15.55;100.00;99556.72;4909859;29;20394;-78
2023/08/01 01:46:11;;;;;;;3.28;2.30;;;;;;;15.53;100.00;99553.56;4893076;29;19942;-78
2023/08/01 01:48:37;;;;;;;;;;;;;;;15.52;100.00;99537.72;4898753;29;20072;-77
2023/08/01 01:51:02;;;;;;;3.63;2.72;;;;;;;15.49;100.00;99538.34;4918630;29;20043;-77
2023/08/01 01:53:28;;;;;;;3.17;2.33;;;;;;;15.49;100.00;99533.75;4895345;29;20115;-78
2023/08/01 01:55:54;;;;;;;3.38;3.05;;;;;;;15.50;100.00;99529.91;4897161;29;20040;-77
2023/08/01 01:58:20;;;;;;;4.53;3.00;;;;;;;15.50;100.00;99524.53;4891118;29;20101;-77
2023/08/01 02:00:46;;;;;;;4.72;2.92;;;;;;;15.51;100.00;99520.72;4902325;29;20036;-79
2023/08/01 02:03:12;;;;;;;;;;;;;;;15.51;100.00;99518.03;4910332;29;20060;-75
2023/08/01 02:05:41;;;;;;;4.85;3.10;;;;;;;15.49;100.00;99514.88;4881187;29;19958;-74
2023/08/01 02:08:07;;;;;;;4.13;3.22;;;;;;;15.51;100.00;99509.13;4901742;29;20503;-77
2023/08/01 02:10:33;;;;;;;;;;;;;;;15.52;100.00;99508.81;4904991;29;20135;-72
2023/08/01 02:12:58;;;;;;;5.85;3.67;;;;;;;15.51;100.00;99506.44;4901712;29;20009;-77
2023/08/01 02:15:24;;;;;;;;;;;;;;;15.51;100.00;99507.25;4899992;29;20140;-77
2023/08/01 02:17:49;;;;;;;8.07;4.60;;;;;;;15.52;100.00;99502.63;4890324;29;20094;-76
2023/08/01 02:20:15;;;;;;;;;;;;;;;15.52;100.00;99500.72;4898400;29;20409;-75
2023/08/01 02:22:41;;;;;;;6.03;3.72;;;;;;;15.50;100.00;99502.94;4925784;29;19922;-77
2023/08/01 02:25:06;;;;;;;5.60;3.53;;;;;;;15.51;100.00;99507.25;4913386;29;20051;-78
2023/08/01 02:27:32;;;;;;;;;;;;;;;15.53;100.00;99499.59;4881236;29;20580;-77
2023/08/01 02:29:58;;;;;;;6.60;5.22;;;;;;;15.52;100.00;99492.63;4889131;29;19924;-76
2023/08/01 02:32:23;;;;;;;;;;;;;;;15.53;100.00;99494.19;4891610;29;20501;-76
2023/08/01 02:34:50;;;;;;;6.25;5.07;;;;;;;15.51;100.00;99480.25;4889638;29;20497;-75
2023/08/01 02:37:16;;;;;;;6.10;5.13;;;;;;;15.54;100.00;99481.50;4891111;29;20134;-77
2023/08/01 02:39:41;;;;;;;5.68;4.38;;;;;;;15.55;100.00;99488.47;4907377;29;20044;-77
2023/08/01 02:42:08;;;;;;;6.95;5.63;;;;;;;15.54;100.00;99484.97;4888088;29;20091;-77
2023/08/01 02:44:34;;;;;;;6.53;5.53;;;;;;;15.57;100.00;99478.13;4876087;29;20383;-76
2023/08/01 02:46:59;;;;;;;;;;;;;;;15.59;100.00;99480.50;4890305;29;20042;-76
2023/08/01 02:49:26;;;;;;;7.90;6.07;;;;;;;15.56;100.00;99477.34;4892439;29;19915;-77
2023/08/01 02:51:52;;;;;;;8.70;5.88;;;;;;;15.55;100.00;99478.47;4880596;29;20247;-76
2023/08/01 02:54:18;;;;;;;;;;;;;;;15.59;100.00;99480.50;4891798;29;20119;-78
2023/08/01 02:56:43;;;;;;;8.13;6.10;;;;;;;15.57;100.00;99478.91;4904123;29;19946;-77
2023/08/01 02:59:09;;;;;;;;;;;;;;;15.60;100.00;99482.09;4876014;29;20039;-79
2023/08/01 03:01:38;;;;;;;9.70;7.35;;;;;;;15.62;100.00;99475.25;4934769;23;19927;-75
2023/08/01 03:04:05;;;;;;;9.18;7.72;;;;;;;15.65;100.00;99473.81;4923325;29;20143;-74
2023/08/01 03:06:33;;;;;;;11.15;7.38;;;;;;;15.65;100.00;99471.09;4906063;29;20055;-75
2023/08/01 03:08:59;;;;;;;9.50;7.78;;;;;;;15.64;100.00;99459.50;4924863;29;20494;-74
2023/08/01 03:11:26;;;;;;;;;;;;;;;15.67;100.00;99460.75;4920153;29;20040;-74
2023/08/01 03:13:51;;;;;;;8.75;7.10;;;;;;;15.68;100.00;99463.13;4925065;29;19966;-74
2023/08/01 03:16:17;;;;;;;;;;;;;;;15.67;100.00;99456.16;4920668;29;20039;-74
2023/08/01 03:18:43;;;;;;;9.15;6.18;;;;;;;15.67;100.00;99447.28;4902884;29;19915;-73
2023/08/01 03:21:09;;;;;;;;;;;;;;;15.64;100.00;99450.63;4933554;28;20040;-73
2023/08/01 03:23:35;;;;;;;10.45;6.75;;;;;;;15.62;100.00;99442.88;4926271;29;20388;-74
2023/08/01 03:26:01;;;;;;;;;;;;;;;15.64;100.00;99451.41;4910361;29;20082;-73
2023/08/01 03:28:26;;;;;;;8.00;6.60;;;;;;;15.63;100.00;99447.13;4921968;29;19961;-74
2023/08/01 03:30:53;;;;;;;;;;;;;;;15.65;100.00;99452.22;4908664;29;20046;-74
2023/08/01 03:33:20;;;;;;;8.40;5.95;;;;;;;15.63;100.00;99439.03;4920511;29;19974;-75
2023/08/01 03:35:46;;;;;;;9.52;7.78;;;;;;;15.63;100.00;99446.34;4921554;29;20035;-74
2023/08/01 03:38:12;;;;;;;9.90;7.45;;;;;;;15.66;100.00;99445.69;4919806;29;20089;-74
2023/08/01 03:40:37;;;;;;;;;;;;;;;15.66;100.00;99443.00;4908951;29;20043;-75
2023/08/01 03:43:03;;;;;;;11.68;8.65;;;;;;;15.66;100.00;99440.28;4901529;29;19982;-75
2023/08/01 03:45:29;;;;;;;7.43;6.00;;;;;;;15.69;100.00;99437.69;4907180;29;20142;-74
2023/08/01 03:47:54;;;;;;;;;;;;;;;15.70;100.00;99433.88;4900394;29;20039;-76
2023/08/01 03:50:20;;;;;;;10.75;7.07;;;;;;;15.69;100.00;99426.13;4924212;29;19918;-76
2023/08/01 03:52:48;;;;;;;12.32;8.18;;;;;;;15.68;100.00;99422.63;4905606;29;20069;-76
2023/08/01 03:55:14;;;;;;;;;;;;;;;15.68;100.00;99429.94;4923273;29;20032;-75
2023/08/01 03:57:42;;;;;;;9.25;6.00;;;;;;;15.65;100.00;99428.72;4918048;29;19965;-76
2023/08/01 04:00:13;;;;;;;12.55;8.52;;;;;;;15.67;100.00;99429.16;4906491;29;20387;-76
2023/08/01 04:02:41;;;;;;;11.02;6.90;;;;;;;15.68;100.00;99429.94;4920914;29;20533;-76
2023/08/01 04:05:08;;;;;;;10.93;7.68;;;;;;;15.68;100.00;99424.56;4901913;29;20805;-76
2023/08/01 04:07:38;;;;;;;9.85;6.90;;;;;;;15.69;100.00;99416.13;4904692;29;20477;-74
2023/08/01 04:10:04;;;;;;;10.10;8.32;;;;;;;15.71;100.00;99421.16;4924000;29;20497;-77
2023/08/01 04:12:32;;;;;;;11.50;7.95;;;;;;;15.71;100.00;99424.66;4923195;29;20040;-76
2023/08/01 04:14:58;;;;;;;12.07;7.47;;;;;;;15.72;100.00;99428.94;4920800;29;20087;-76
2023/08/01 04:17:23;;;;;;;;;;;;;;;15.71;100.00;99423.88;4906008;29;20054;-74
2023/08/01 04:19:49;;;;;;;8.35;6.50;;;;;;;15.70;100.00;99425.78;4924434;29;19921;-76
2023/08/01 04:22:15;;;;;;;;;;;;;;;15.71;100.00;99421.16;4924096;29;20119;-76
2023/08/01 04:24:41;;;;;;;10.73;6.82;;;;;;;15.72;100.00;99433.56;4920897;29;19954;-76
2023/08/01 04:27:06;;;;;;;;;;;;;;;15.72;100.00;99433.56;4889381;29;20039;-77
2023/08/01 04:29:32;;;;;;;9.35;7.00;;;;;;;15.69;100.00;99428.81;4917137;29;19970;-77
2023/08/01 04:31:57;;;;;;;;;;;;;;;15.68;100.00;99425.34;4914530;29;20043;-76
2023/08/01 04:34:23;;;;;;;8.52;6.80;;;;;;;15.68;100.00;99429.94;4924523;29;19919;-73
2023/08/01 04:36:49;;;;;;;;;;;;;;;15.68;100.00;99436.13;4905222;29;20036;-76
2023/08/01 04:39:14;;;;;;;15.35;8.45;;;;;;;15.68;100.00;99436.13;4920555;29;19922;-76
2023/08/01 04:41:40;;;;;;;;;;;;;;;15.68;100.00;99435.34;4921592;29;20627;-76
2023/08/01 04:44:06;;;;;;;11.57;6.88;;;;;;;15.68;100.00;99425.34;4903617;29;20580;-76
2023/08/01 04:46:32;;;;;;;12.05;6.93;;;;;;;15.70;100.00;99433.88;4902105;29;20036;-76
2023/08/01 04:48:58;;;;;;;11.52;7.80;;;;;;;15.71;100.00;99440.84;4908200;29;20036;-77
2023/08/01 04:51:25;;;;;;;10.32;7.60;;;;;;;15.70;100.00;99430.38;4934261;28;20494;-75
2023/08/01 04:53:50;;;;;;;10.43;7.05;;;;;;;15.70;100.00;99427.69;4932599;28;21082;-75
2023/08/01 04:56:16;;;;;;;;;;;;;;;15.71;100.00;99431.97;4921625;29;20148;-75
2023/08/01 04:58:41;;;;;;;10.80;7.07;;;;;;;15.73;100.00;99416.25;4920613;29;19954;-77
2023/08/01 05:01:07;;;;;;;;;;;;;;;15.74;100.00;99428.59;4924397;29;20126;-76
2023/08/01 05:03:33;;;;;;;10.38;6.85;;;;;;;15.73;100.00;99421.63;4892427;29;20047;-76
2023/08/01 05:05:59;;;;;;;;;;;;;;;15.76;100.00;99421.75;4934276;28;20036;-77
2023/08/01 05:08:24;;;;;;;11.43;7.13;;;;;;;15.76;100.00;99426.34;4919255;29;19915;-74
2023/08/01 05:10:50;;;;;;;;;;;;;;;15.79;100.00;99420.31;4911635;29;20433;-74
2023/08/01 05:13:16;;;;;;;11.25;6.25;;;;;;;15.78;100.00;99416.00;4921211;28;20356;-75
2023/08/01 05:15:47;;;;;;;11.32;6.82;;;;;;;15.81;100.00;99412.66;4914614;29;20047;-75
2023/08/01 05:18:16;;;;;;;10.05;7.25;;;;;;;15.81;100.00;99413.44;4926321;29;20051;-74
2023/08/01 05:20:42;;;;;;;9.18;7.03;;;;;;;15.77;99.64;99417.13;4922815;29;20151;-74
2023/08/01 05:23:08;;;;;;;;;;;;;;;15.82;99.88;99423.09;4895770;29;20042;-73
2023/08/01 05:25:34;;;;;;;11.82;7.10;;;;;;;15.79;99.61;99423.78;4924833;29;19914;-76
2023/08/01 05:28:00;;;;;;;;;;;;;;;15.80;99.40;99424.56;4926143;29;20441;-75
2023/08/01 05:30:26;;;;;;;7.72;6.18;;;;;;;15.80;99.43;99419.16;4919780;29;19922;-75
2023/08/01 05:32:53;;;;;;;;;;;;;;;15.82;99.70;99419.63;4901084;29;20036;-76
2023/08/01 05:35:20;;;;;;;12.80;7.63;;;;;;;15.80;99.73;99419.16;4919505;29;20336;-76
2023/08/01 05:37:45;;;;;;;8.45;5.90;;;;;;;15.78;99.41;99422.22;4910858;29;20039;-75
2023/08/01 05:40:11;;;;;;;;;;;;;;;15.79;99.66;99414.91;4924437;29;20047;-75
2023/08/01 05:42:37;;;;;;;7.43;5.82;;;;;;;15.80;99.77;99416.47;4925948;29;19918;-76
2023/08/01 05:45:04;;;;;;;;;;;;;;;15.80;99.77;99429.97;4903526;29;20040;-74
2023/08/01 05:47:30;;;;;;;5.63;4.72;;;;;;;15.81;99.74;99434.25;4922126;29;20865;-74
2023/08/01 05:49:56;;;;;;;;;;;;;;;15.80;99.45;99432.66;4894432;29;20163;-73
2023/08/01 05:52:22;;;;;;;7.15;3.97;;;;;;;15.83;99.79;99426.59;4907475;29;19918;-74
2023/08/01 05:54:48;;;;;;;5.50;4.43;;;;;;;15.86;99.62;99427.84;4933689;28;20059;-74
2023/08/01 05:57:14;;;;;;;6.32;5.72;;;;;;;15.89;99.65;99436.03;4918263;29;20036;-74
2023/08/01 05:59:40;;;;;;;;;;;;;;;15.96;100.00;99435.47;4926416;29;20039;-73
2023/08/01 06:02:06;;;;;;;6.25;4.53;;;;;;;15.94;100.00;99433.13;4923740;29;19918;-74
2023/08/01 06:04:31;;;;;;;;;;;;;;;15.94;99.88;99438.53;4909857;29;20472;-74
2023/08/01 06:06:57;;;;;;;6.45;4.38;;;;;;;15.95;100.00;99436.63;4903782;29;20581;-74
2023/08/01 06:09:22;;;;;;;;;;;;;;;15.86;99.14;99434.03;4926617;29;20406;-73
2023/08/01 06:11:48;;;;;;;8.43;5.32;;;;;;;15.89;99.78;99430.63;4925489;29;19921;-74
2023/08/01 06:14:14;;;;;;;8.77;5.10;;;;;;;15.90;99.99;99431.44;4907812;29;20036;-75
2023/08/01 06:16:40;;;;;;;;;;;;;;;15.88;99.09;99423.66;4905152;29;20042;-75
2023/08/01 06:19:05;;;;;;;7.53;4.82;;;;;;;15.92;99.48;99424.59;4936864;28;20179;-75
2023/08/01 06:21:31;;;;;;;;;;;;;;;15.97;100.00;99427.03;4895559;29;20125;-75
2023/08/01 06:23:57;;;;;;;10.30;5.22;;;;;;;15.98;100.00;99423.22;4925341;29;19926;-75
2023/08/01 06:26:22;;;;;;;;;;;;;;;16.01;100.00;99414.44;4920717;29;20031;-74
2023/08/01 06:28:48;;;;;;;10.20;5.38;;;;;;;16.05;100.00;99428.88;4939810;28;19925;-74
2023/08/01 06:31:14;;;;;;;;;;;;;;;16.07;100.00;99426.59;4925790;29;20040;-74
2023/08/01 06:33:40;;;;;;;9.70;5.57;;;;;;;16.03;99.92;99423.00;4938336;28;20009;-74
2023/08/01 06:36:05;;;;;;;9.60;5.65;;;;;;;16.08;99.83;99422.78;4908163;29;20449;-76
2023/08/01 06:38:31;;;;;;;9.52;5.68;;;;;;;16.07;99.04;99426.59;4935910;28;20040;-75
2023/08/01 06:40:56;;;;;;;;;;;;;;;16.19;99.84;99427.72;4938329;28;20570;-74
2023/08/01 06:43:24;;;;;;;9.18;5.93;;;;;;;16.19;100.00;99428.53;4907247;29;19919;-74
2023/08/01 06:45:50;;;;;;;8.13;5.95;;;;;;;16.21;99.96;99436.28;4906798;29;20032;-75
2023/08/01 06:48:16;;;;;;;;;;;;;;;16.18;99.89;99445.03;4892283;29;20105;-77
2023/08/01 06:50:41;;;;;;;9.32;5.65;;;;;;;16.18;100.00;99447.75;4919211;29;20420;-74
2023/08/01 06:53:08;;;;;;;;;;;;;;;16.16;99.56;99444.59;4918264;29;20079;-74
2023/08/01 06:55:34;;;;;;;9.95;5.30;;;;;;;16.06;97.90;99443.94;4906224;29;20384;-75
2023/08/01 06:57:59;;;;;;;;;;;;;;;16.09;98.10;99442.47;4922769;29;20043;-76
2023/08/01 07:00:25;;;;;;;8.25;4.68;;;;;;;16.07;98.48;99448.22;4936018;28;20641;-76
2023/08/01 07:02:50;;;;;;;;;;;;;;;16.08;98.16;99444.38;4905813;29;20047;-76
2023/08/01 07:05:16;;;;;;;7.90;4.10;;;;;;;16.05;96.92;99453.16;4908344;29;19949;-77
2023/08/01 07:07:42;;;;;;;7.88;5.10;;;;;;;16.11;98.45;99449.09;4920558;29;20032;-76
2023/08/01 07:10:08;;;;;;;;;;;;;;;16.10;97.82;99455.63;4926018;29;20035;-77
2023/08/01 07:12:33;;;;;;;7.13;3.95;;;;;;;16.14;98.15;99457.66;4893847;29;19915;-75
2023/08/01 07:14:59;;;;;;;7.97;3.83;;;;;;;16.17;97.70;99452.38;4906867;29;20061;-74
2023/08/01 07:17:24;;;;;;;;;;;;;;;16.18;97.12;99453.16;4925398;29;20044;-74
2023/08/01 07:19:50;;;;;;;9.40;3.70;;;;;;;16.21;97.19;99449.78;4924461;29;20419;-74
2023/08/01 07:22:15;;;;;;;;;;;;;;;16.24;96.66;99451.81;4894207;29;20043;-74
2023/08/01 07:24:41;;;;;;;4.78;2.70;;;;;;;16.21;94.16;99457.88;4907859;29;19918;-75
2023/08/01 07:27:06;;;;;;;;;;;;;;;16.34;96.55;99462.16;4908139;29;20036;-75
2023/08/01 07:29:33;;;;;;;10.50;3.60;;;;;;;16.40;97.63;99454.63;4924135;29;20376;-76
2023/08/01 07:31:59;;;;;;;;;;;;;;;16.39;96.89;99464.63;4910476;29;20044;-76
2023/08/01 07:34:24;;;;;;;6.65;3.33;;;;;;;16.36;95.82;99466.09;4916533;29;20756;-77
2023/08/01 07:36:50;;;;;;;;;;;;;;;16.38;96.73;99447.63;4915484;29;20157;-77
2023/08/01 07:39:16;;;;;;;6.05;3.53;;;;;;;16.38;96.94;99458.44;4923731;29;19962;-75
2023/08/01 07:41:42;;;;;;;7.60;3.33;;;;;;;16.33;95.72;99464.06;4906296;29;20039;-78
2023/08/01 07:44:07;;;;;;;;;;;;;;;16.33;96.21;99455.19;4919299;29;20098;-77
2023/08/01 07:46:33;;;;;;;7.22;3.75;;;;;;;16.40;96.74;99454.63;4936187;28;19915;-77
2023/08/01 07:49:02;;;;;;;;;;;;;;;16.43;95.86;99460.13;4895845;29;20038;-77
2023/08/01 07:51:29;;;;;;;5.43;4.15;;;;;;;16.47;97.23;99461.03;4905737;29;19915;-76
2023/08/01 07:53:55;;;;;;;5.85;3.75;;;;;;;16.46;97.20;99462.16;4905801;29;20036;-77
2023/08/01 07:56:21;;;;;;;;;;;;;;;16.43;96.57;99453.94;4915646;29;20099;-78
2023/08/01 07:58:46;;;;;;;8.02;4.05;;;;;;;16.40;96.55;99460.81;4924850;29;19933;-77
2023/08/01 08:01:12;;;;;;;;;;;;;;;16.39;96.79;99456.50;4923740;29;20075;-76
2023/08/01 08:03:38;;;;;;;8.15;3.45;;;;;;;16.50;95.54;99465.75;4908305;29;19934;-77
2023/08/01 08:06:05;;;;;;;;;;;;;;;16.56;95.92;99464.38;4905909;29;20552;-77
2023/08/01 08:08:33;;;;;;;8.32;3.75;;;;;;;16.74;95.84;99461.47;4891856;29;20391;-77
2023/08/01 08:11:00;;;;;;;6.25;3.97;;;;;;;16.94;96.45;99465.13;4910561;29;20058;-78
2023/08/01 08:13:26;;;;;;;7.53;4.30;;;;;;;17.19;93.59;99464.69;4910093;29;20106;-77
2023/08/01 08:15:54;;;;;;;10.82;4.70;;;;;;;17.32;92.74;99461.94;4910362;29;20445;-77
2023/08/01 08:18:20;;;;;;;8.15;4.18;;;;;;;17.39;92.11;99460.19;4911104;29;20099;-78
2023/08/01 08:20:45;;;;;;;;;;;;;;;17.39;92.19;99470.25;4911054;29;20039;-79
2023/08/01 08:23:15;;;;;;;7.70;4.10;;;;;;;17.38;92.32;99468.66;4915870;29;19974;-76
2023/08/01 08:25:41;;;;;;;13.13;4.00;;;;;;;17.36;93.88;99465.53;4923632;29;20469;-77
2023/08/01 08:28:08;;;;;;;8.18;4.00;;;;;;;17.32;93.65;99461.94;4921645;29;20047;-76
2023/08/01 08:30:35;;;;;;;9.90;4.13;;;;;;;17.27;94.43;99465.66;4911445;29;20625;-78
2023/08/01 08:33:04;;;;;;;6.22;3.97;;;;;;;17.23;94.81;99464.00;4930358;29;20035;-78
2023/08/01 08:35:34;;;;;;;8.63;4.90;;;;;;;17.19;95.01;99472.78;4894421;29;20133;-78
2023/08/01 08:38:02;;;;;;;11.50;4.20;;;;;;;17.24;94.43;99473.69;4894341;29;20146;-77
2023/08/01 08:40:27;;;;;;;8.13;5.43;;;;;;;17.29;93.36;99462.63;4907400;29;20066;-77
2023/08/01 08:42:54;;;;;;;;;;;;;;;17.40;93.50;99469.09;4901156;29;20518;-77
2023/08/01 08:45:20;;;;;;;8.32;4.90;;;;;;;17.47;91.48;99464.66;4923059;29;19922;-77
2023/08/01 08:47:55;;;;;;;9.55;5.30;;;;;;;17.63;91.72;99456.59;4903785;29;20040;-77
2023/08/01 08:50:20;;;;;;;7.85;5.05;;;;;;;17.71;91.45;99466.50;4906706;29;20036;-77
2023/08/01 08:52:46;;;;;;;;;;;;;;;17.79;93.24;99469.38;4912377;29;20039;-77
2023/08/01 08:55:13;;;;;;;8.25;4.68;;;;;;;17.72;88.56;99465.34;4930030;29;19923;-76
2023/08/01 08:57:44;;;;;;;6.50;4.60;;;;;;;17.90;90.85;99459.59;4928752;29;20058;-77
2023/08/01 09:00:11;;;;;;;9.70;4.93;;;;;;;18.00;89.94;99459.06;4907603;29;20047;-77
2023/08/01 09:02:37;;;;;;;11.63;5.93;;;;;;;18.14;89.80;99456.69;4918444;29;20044;-77
2023/08/01 09:05:02;;;;;;;;;;;;;;;18.42;87.17;99448.44;4928253;28;20040;-77
2023/08/01 09:07:33;;;;;;;9.45;5.57;;;;;;;18.73;91.09;99457.66;4908827;29;19914;-77
2023/08/01 09:09:59;;;;;;;9.20;4.50;;;;;;;18.70;87.23;99448.31;4895707;29;20051;-76
2023/08/01 09:12:26;;;;;;;9.20;5.22;;;;;;;18.56;85.40;99450.69;4925158;29;20406;-76
2023/08/01 09:14:56;;;;;;;8.25;4.57;;;;;;;18.40;85.15;99450.72;4932745;29;20040;-78
2023/08/01 09:17:21;;;;;;;8.10;5.20;;;;;;;18.38;87.91;99449.50;4933042;28;20043;-77
2023/08/01 09:19:47;;;;;;;7.75;5.05;;;;;;;18.29;88.16;99447.00;4913163;29;20050;-76
2023/08/01 09:22:16;;;;;;;8.30;4.85;;;;;;;18.13;86.73;99452.41;4936660;28;20071;-77
2023/08/01 09:24:52;;;;;;;8.73;4.40;;;;;;;18.08;89.21;99454.59;4926485;29;20039;-77
2023/08/01 09:27:21;;;;;;;7.68;4.80;;;;;;;17.92;89.60;99451.91;4922402;29;20378;-77
2023/08/01 09:29:46;;;;;;;8.15;4.18;;;;;;;17.86;90.70;99447.88;4909242;29;20421;-77
2023/08/01 09:32:13;;;;;;;;;;;;;;;17.77;90.90;99458.13;4926163;29;20787;-77
2023/08/01 09:34:40;;;;;;;7.50;3.25;;;;;;;17.72;90.74;99457.22;4907707;29;19950;-77
2023/08/01 09:37:06;;;;;;;3.90;3.17;;;;;;;17.71;91.00;99463.00;4908108;29;20075;-77
2023/08/01 09:39:32;;;;;;;;;;;;;;;17.64;91.43;99466.28;4918198;29;20040;-77
2023/08/01 09:41:59;;;;;;;4.22;2.75;;;;;;;17.58;89.72;99469.59;4910099;29;19923;-77
2023/08/01 09:44:27;;;;;;;5.53;3.38;;;;;;;17.62;87.78;99465.84;4898185;29;20453;-77
2023/08/01 09:47:04;;;;;;;4.97;3.10;;;;;;;17.78;90.88;99467.81;4923652;29;20413;-77
2023/08/01 09:49:31;;;;;;;5.28;3.75;;;;;;;17.99;89.92;99452.09;4923283;29;20552;-77
2023/08/01 09:51:58;;;;;;;5.70;3.20;;;;;;;18.22;89.12;99447.63;4921852;29;20069;-77
2023/08/01 09:54:23;;;;;;;4.93;3.42;;;;;;;18.45;91.57;99455.09;4902375;29;20035;-76
2023/08/01 09:56:52;;;;;;;6.32;3.97;;;;;;;18.63;91.16;99450.03;4923107;29;20036;-77
2023/08/01 09:59:21;;;;;;;4.10;2.70;;;;;;;18.72;84.83;99459.59;4911850;29;20040;-76
2023/08/01 10:01:52;;;;;;;5.95;2.58;;;;;;;18.81;85.47;99454.75;4896538;29;20051;-77
2023/08/01 10:04:25;;;;;;;3.33;2.60;;;;;;;18.94;84.71;99454.63;4923687;29;20044;-76
2023/08/01 10:06:57;;;;;;;5.65;2.78;;;;;;;18.93;81.78;99455.75;4928101;29;20063;-77
2023/08/01 10:09:24;;;;;;;5.82;2.67;;;;;;;18.96;83.18;99450.38;4924034;29;20608;-76
2023/08/01 10:11:51;;;;;;;3.92;2.15;;;;;;;18.94;82.24;99451.91;4910545;29;20032;-76
2023/08/01 10:14:17;;;;;;;4.60;2.40;;;;;;;18.97;83.36;99457.41;4928038;29;20043;-76
2023/08/01 10:16:44;;;;;;;4.13;2.33;;;;;;;19.11;83.74;99454.19;4922927;29;20059;-76
2023/08/01 10:19:11;;;;;;;3.22;1.95;;;;;;;19.21;81.40;99450.91;4925574;29;20062;-76
2023/08/01 10:21:37;;;;;;;3.78;2.50;;;;;;;19.44;80.80;99448.25;4928094;29;20035;-77
2023/08/01 10:24:04;;;;;;;;;;;;;;;19.61;80.43;99447.00;4908778;29;20461;-77
2023/08/01 10:26:31;;;;;;;4.82;2.20;;;;;;;19.62;82.96;99449.34;4924441;29;20407;-77
2023/08/01 10:28:59;;;;;;;4.28;2.10;;;;;;;19.73;80.19;99443.34;4925619;29;20035;-77
2023/08/01 10:31:25;;;;;;;5.55;2.67;;;;;;;19.83;83.00;99451.66;4927166;29;20055;-78
2023/08/01 10:33:52;;;;;;;4.53;2.20;;;;;;;19.74;83.31;99445.69;4927495;29;20501;-77
2023/08/01 10:36:20;;;;;;;4.38;1.88;;;;;;;19.66;83.39;99444.00;4915274;29;20043;-75
2023/08/01 10:38:57;;;;;;;5.38;2.00;;;;;;;19.63;81.11;99444.69;4913191;29;20150;-77
2023/08/01 10:41:35;;;;;;;3.95;1.98;;;;;;;19.85;79.30;99435.78;4907572;29;20806;-77
2023/08/01 10:44:15;;;;;;;4.45;2.10;;;;;;;19.99;77.96;99448.03;4925781;29;20042;-77
2023/08/01 10:46:52;;;;;;;5.57;2.00;;;;;;;19.99;78.84;99429.81;4919386;29;20061;-77
2023/08/01 10:49:21;;;;;;;3.35;2.13;;;;;;;20.19;76.01;99444.09;4920375;29;20429;-77
2023/08/01 10:51:47;;;;;;;3.95;1.70;;;;;;;20.35;75.78;99436.53;4933860;28;20181;-77
2023/08/01 10:54:23;;;;;;;5.57;2.00;;;;;;;20.45;76.93;99446.03;4924274;29;20043;-76
2023/08/01 10:56:51;;;;;;;2.67;1.65;;;;;;;20.48;76.78;99445.31;4920172;29;20506;-78
2023/08/01 10:59:18;;;;;;;2.83;1.30;;;;;;;20.59;77.05;99450.88;4926676;29;20142;-76
2023/08/01 11:01:58;;;;;;;4.00;1.77;;;;;;;20.67;75.77;99441.69;4936767;28;20594;-76
2023/08/01 11:04:24;;;;;;;4.45;1.70;;;;;;;20.88;76.06;99444.69;4922965;29;20047;-77
2023/08/01 11:06:53;;;;;;;3.45;2.22;;;;;;;20.91;75.16;99449.38;4917274;29;20039;-76
2023/08/01 11:09:21;;;;;;;3.40;2.00;;;;;;;21.13;73.70;99438.72;4923184;29;20035;-76
2023/08/01 11:11:52;;;;;;;3.30;1.80;;;;;;;21.17;74.78;99445.00;4920441;29;20098;-77
2023/08/01 11:14:21;;;;;;;7.70;2.20;;;;;;;20.97;77.65;99445.16;4923072;29;20046;-76
2023/08/01 11:16:47;;;;;;;3.92;2.08;;;;;;;20.58;79.38;99481.94;4918907;29;20040;-75
2023/08/01 11:19:20;;;;;;;3.42;1.40;;;;;;;19.40;68.10;99482.66;4922328;29;20079;-75
2023/08/01 11:21:45;;;;;;;2.53;0.93;;;;;;;19.02;69.63;99494.31;4906296;29;20078;-77
2023/08/01 11:24:11;;;;;;;2.38;1.30;;;;;;;18.59;73.73;99506.91;4925500;29;20118;-76
2023/08/01 11:26:40;;;;;;;;;;;;;;;18.16;71.94;99521.41;4909320;29;20047;-75
2023/08/01 11:29:05;;;;;;;2.42;1.38;;;;;;;17.99;78.72;99517.09;4922210;29;20765;-77
2023/08/01 11:31:31;;;;;;;;;;;;;;;17.72;76.49;99518.72;4907655;29;20064;-77
2023/08/01 11:33:58;;;;;;;2.97;1.60;;;;;;;17.28;78.61;99536.81;4923607;29;20359;-76
2023/08/01 11:36:28;;;;;;;4.65;1.10;;;;;;;16.84;81.89;99523.16;4916672;29;20060;-78
2023/08/01 11:38:58;;;;;;;3.30;1.13;;;;;;;16.80;85.00;99523.06;4915835;29;20043;-77
2023/08/01 11:41:26;;;;;;;6.35;1.38;;;;;;;16.58;86.33;99534.31;4922816;29;20047;-77
2023/08/01 11:43:54;;;;;;;4.53;1.33;;;;;;;16.47;86.10;99528.59;4919989;29;20039;-76